Time;durP1;ratioP1;P1;durP2;ratioP2;P2;SDS_P1;SDS_P2;PMS_P1;PMS_P2;Temp;Humidity;BMP_temperature;BMP_pressure;BME280_temperature;BME280_humidity;BME280_pressure;Samples;Min_cycle;Max_cycle;Signal;HPM_P1;HPM_P2
2021/12/27 00:01:06;;;;;;;4.55;1.75;;;;;;;-0.92;85.07;147446.03;1753658;80;21025;-65
2021/12/27 00:03:34;;;;;;;5.20;1.85;;;;;;;-0.92;85.65;147446.03;1755391;80;20921;-65
2021/12/27 00:06:01;;;;;;;4.67;1.90;;;;;;;-0.89;85.73;147453.75;1758209;80;21355;-65
2021/12/27 00:08:28;;;;;;;5.20;2.15;;;;;;;-0.87;85.59;147458.88;1722825;82;21052;-65
2021/12/27 00:10:54;;;;;;;3.00;1.57;;;;;;;-0.85;85.07;147461.45;1748906;80;21572;-65
2021/12/27 00:13:21;;;;;;;5.35;1.67;;;;;;;-0.85;85.29;147461.45;1761399;80;21021;-65
2021/12/27 00:15:49;;;;;;;4.60;1.45;;;;;;;-0.85;85.54;147462.77;1760697;80;20948;-65
2021/12/27 00:18:18;;;;;;;3.10;1.82;;;;;;;-0.85;85.28;147461.45;1758218;80;21047;-61
2021/12/27 00:20:44;;;;;;;3.67;2.00;;;;;;;-0.87;84.53;147458.88;1759315;80;21044;-62
2021/12/27 00:23:13;;;;;;;3.90;1.65;;;;;;;-0.88;84.14;147455.06;1756164;80;20989;-61
2021/12/27 00:25:40;;;;;;;2.20;1.35;;;;;;;-0.88;84.64;147456.31;1731333;81;21055;-65
2021/12/27 00:28:07;;;;;;;3.83;1.70;;;;;;;-0.87;84.37;147457.63;1727896;81;21363;-65
2021/12/27 00:30:33;;;;;;;5.10;1.85;;;;;;;-0.89;83.87;147452.44;1721129;81;21123;-66
2021/12/27 00:33:00;;;;;;;5.60;1.70;;;;;;;-0.91;83.80;147447.30;1715351;82;21332;-66
2021/12/27 00:35:29;;;;;;;3.27;1.80;;;;;;;-0.92;83.92;147446.03;1721144;81;21067;-65
2021/12/27 00:37:55;;;;;;;2.75;1.70;;;;;;;-0.91;84.37;147448.59;1727008;81;21576;-65
2021/12/27 00:40:22;;;;;;;5.97;2.08;;;;;;;-0.91;84.12;147448.59;1723104;82;21087;-65
2021/12/27 00:42:50;;;;;;;5.72;2.20;;;;;;;-0.93;83.41;147443.47;1721182;81;21527;-61
2021/12/27 00:45:20;;;;;;;4.17;2.27;;;;;;;-0.96;83.45;147435.75;1723704;81;21104;-61
2021/12/27 00:47:48;;;;;;;6.53;2.60;;;;;;;-0.99;83.40;147428.05;1731995;81;21495;-61
2021/12/27 00:50:15;;;;;;;5.00;2.05;;;;;;;-1.00;83.81;147425.44;1720272;82;20953;-62
2021/12/27 00:52:41;;;;;;;6.35;2.20;;;;;;;-1.02;84.03;147420.28;1716239;82;21096;-61
2021/12/27 00:55:10;;;;;;;3.67;2.30;;;;;;;-1.01;84.12;147422.86;1727567;82;21376;-61
2021/12/27 00:57:39;;;;;;;5.53;2.10;;;;;;;-1.03;84.24;147417.72;1722097;81;20959;-61
2021/12/27 01:00:13;;;;;;;4.08;2.08;;;;;;;-1.04;84.30;147415.16;1722554;81;21056;-61
2021/12/27 01:02:39;;;;;;;4.35;2.20;;;;;;;-1.05;84.82;147412.58;1721400;81;21086;-60
2021/12/27 01:05:07;;;;;;;6.35;2.50;;;;;;;-1.03;84.73;147417.72;1723605;82;20889;-63
2021/12/27 01:07:35;;;;;;;5.90;2.90;;;;;;;-1.02;85.11;147420.28;1739779;80;21784;-61
2021/12/27 01:10:33;;;;;;;3.90;2.50;;;;;;;-1.02;85.16;147420.28;1755291;80;21327;-61
2021/12/27 01:12:51;;;;;;;5.78;2.75;;;;;;;-1.04;84.58;147416.47;1749116;80;21068;-60
2021/12/27 01:17:48;;;;;;;6.10;2.55;;;;;;;-1.04;84.22;147416.47;1751599;80;21086;-61
2021/12/27 01:20:18;;;;;;;6.37;3.22;;;;;;;-1.05;84.35;147412.58;1758912;80;20976;-60
2021/12/27 01:22:45;;;;;;;6.75;3.37;;;;;;;-1.06;83.92;147410.02;1763062;80;21047;-61
2021/12/27 01:25:12;;;;;;;7.37;2.87;;;;;;;-1.08;84.36;147406.19;1758748;80;21159;-61
2021/12/27 01:27:41;;;;;;;7.95;3.22;;;;;;;-1.07;84.05;147407.44;1754677;80;21035;-62
2021/12/27 01:30:11;;;;;;;7.85;3.37;;;;;;;-1.09;83.95;147403.61;1764667;80;21438;-62
2021/12/27 01:32:46;;;;;;;6.17;2.98;;;;;;;-1.11;84.70;147398.44;1760598;80;21457;-64
2021/12/27 01:35:08;;;;;;;6.30;3.30;;;;;;;-1.11;84.25;147397.17;1759083;80;21015;-65
2021/12/27 01:37:36;;;;;;;7.17;3.40;;;;;;;-1.14;84.23;147389.45;1758180;80;21120;-65
2021/12/27 01:40:07;;;;;;;6.87;3.40;;;;;;;-1.14;84.27;147390.72;1758576;80;21096;-65
2021/12/27 01:42:33;;;;;;;8.38;4.03;;;;;;;-1.12;84.74;147394.59;1759678;80;21604;-65
2021/12/27 01:45:00;;;;;;;6.90;3.30;;;;;;;-1.09;84.84;147402.31;1759046;80;21025;-65
2021/12/27 01:47:29;;;;;;;8.25;3.55;;;;;;;-1.12;84.18;147394.59;1761656;81;21150;-65
2021/12/27 01:49:55;;;;;;;9.25;4.08;;;;;;;-1.13;84.61;147393.28;1758377;80;21458;-65
2021/12/27 01:52:22;;;;;;;8.25;4.25;;;;;;;-1.12;84.89;147395.86;1756491;80;21080;-65
2021/12/27 01:54:50;;;;;;;8.33;4.03;;;;;;;-1.11;84.75;147397.17;1755832;80;21099;-65
2021/12/27 01:57:17;;;;;;;11.60;4.60;;;;;;;-1.11;84.44;147397.17;1760981;80;21159;-65
2021/12/27 01:59:44;;;;;;;9.43;4.00;;;;;;;-1.10;83.88;147399.73;1764352;80;21072;-65
2021/12/27 02:02:12;;;;;;;7.97;4.37;;;;;;;-1.11;83.77;147397.17;1762791;81;20977;-65
2021/12/27 02:04:38;;;;;;;6.95;3.80;;;;;;;-1.11;83.76;147397.17;1757492;80;20992;-64
2021/12/27 02:07:05;;;;;;;9.28;4.22;;;;;;;-1.11;83.32;147398.44;1761501;80;20991;-65
2021/12/27 02:09:44;;;;;;;9.03;4.15;;;;;;;-1.11;82.91;147397.17;1753150;81;21134;-65
2021/12/27 02:12:01;;;;;;;9.75;4.35;;;;;;;-1.12;82.92;147395.86;1753132;80;21060;-65
2021/12/27 02:14:28;;;;;;;10.50;4.30;;;;;;;-1.11;83.50;147398.44;1748614;80;21056;-65
2021/12/27 02:16:55;;;;;;;10.00;4.17;;;;;;;-1.09;83.12;147403.61;1754187;80;21021;-65
2021/12/27 02:19:21;;;;;;;10.35;4.78;;;;;;;-1.08;82.49;147404.88;1751428;80;21088;-65
2021/12/27 02:21:48;;;;;;;12.13;5.08;;;;;;;-1.08;82.40;147406.19;1750302;80;21132;-65
2021/12/27 02:24:14;;;;;;;6.58;3.67;;;;;;;-1.09;82.03;147402.31;1756339;80;21135;-65
2021/12/27 02:26:42;;;;;;;9.63;4.00;;;;;;;-1.07;82.54;147407.44;1744236;80;21870;-66
2021/12/27 02:29:09;;;;;;;10.35;4.53;;;;;;;-1.07;81.78;147407.44;1746697;80;21459;-66
2021/12/27 02:31:39;;;;;;;8.10;4.30;;;;;;;-1.07;82.23;147408.75;1747375;80;21758;-66
2021/12/27 02:34:05;;;;;;;7.70;3.90;;;;;;;-1.06;81.56;147410.02;1713109;83;21944;-66
2021/12/27 02:36:33;;;;;;;8.85;4.62;;;;;;;-1.06;81.88;147410.02;1751500;80;21067;-65
2021/12/27 02:39:00;;;;;;;6.92;3.67;;;;;;;-1.05;82.13;147412.58;1752250;80;20917;-66
2021/12/27 02:41:27;;;;;;;9.65;4.47;;;;;;;-1.05;80.85;147412.58;1706711;82;21081;-66
2021/12/27 02:43:54;;;;;;;12.10;4.20;;;;;;;-1.05;80.26;147412.58;1752548;81;21052;-65
2021/12/27 02:46:21;;;;;;;7.47;4.10;;;;;;;-1.05;80.00;147412.58;1759546;80;21143;-66
2021/12/27 02:48:48;;;;;;;12.80;4.65;;;;;;;-1.05;79.38;147412.58;1754385;80;21043;-65
2021/12/27 02:51:17;;;;;;;7.50;3.90;;;;;;;-1.05;79.04;147413.89;1755596;80;21033;-65
2021/12/27 02:53:46;;;;;;;9.33;4.08;;;;;;;-1.03;78.72;147417.72;1748773;80;21022;-65
2021/12/27 02:56:13;;;;;;;13.15;5.67;;;;;;;-1.03;78.31;147417.72;1754610;80;20950;-65
2021/12/27 02:58:39;;;;;;;11.65;5.50;;;;;;;-1.01;79.18;147422.86;1754992;80;21853;-61
2021/12/27 03:01:10;;;;;;;10.68;5.35;;;;;;;-1.01;78.43;147422.86;1757815;80;20989;-61
2021/12/27 03:03:37;;;;;;;10.58;5.33;;;;;;;-1.01;77.88;147422.86;1752025;80;21059;-61
2021/12/27 03:06:06;;;;;;;10.63;5.10;;;;;;;-1.02;78.19;147420.28;1751952;81;21059;-61
2021/12/27 03:08:33;;;;;;;17.07;6.22;;;;;;;-1.01;77.93;147422.86;1761156;80;21544;-61
2021/12/27 03:11:00;;;;;;;13.28;5.83;;;;;;;-1.00;77.91;147425.44;1732187;81;21085;-61
2021/12/27 03:13:31;;;;;;;13.40;6.28;;;;;;;-1.01;77.55;147424.17;1731632;81;21529;-61
2021/12/27 03:16:05;;;;;;;13.83;5.97;;;;;;;-1.01;78.21;147424.17;1711621;83;21054;-61
2021/12/27 03:18:34;;;;;;;16.48;6.00;;;;;;;-1.01;77.41;147424.17;1708245;82;21565;-61
2021/12/27 03:21:02;;;;;;;16.27;6.78;;;;;;;-1.01;77.32;147424.17;1691998;83;20954;-61
2021/12/27 03:23:28;;;;;;;12.98;6.05;;;;;;;-0.99;77.81;147426.73;1762049;80;22524;-62
2021/12/27 03:25:56;;;;;;;14.95;6.70;;;;;;;-0.99;78.94;147428.05;1762001;80;21141;-61
2021/12/27 03:28:23;;;;;;;17.60;7.00;;;;;;;-0.99;78.17;147428.05;1752030;80;20934;-62
2021/12/27 03:30:50;;;;;;;17.73;6.33;;;;;;;-0.98;78.04;147429.31;1756960;80;21038;-62
2021/12/27 03:33:20;;;;;;;14.10;6.53;;;;;;;-0.98;76.75;147430.63;1711318;82;20945;-61
2021/12/27 03:36:02;;;;;;;12.85;5.90;;;;;;;-0.99;77.80;147428.05;1672669;83;21156;-61
2021/12/27 03:38:34;;;;;;;12.35;6.03;;;;;;;-0.98;78.20;147430.63;1702500;83;21051;-62
2021/12/27 03:41:03;;;;;;;14.03;6.60;;;;;;;-0.95;78.37;147438.33;1699799;82;21452;-61
2021/12/27 03:43:29;;;;;;;13.10;6.37;;;;;;;-0.93;78.36;147443.47;1748329;80;21036;-61
2021/12/27 03:45:56;;;;;;;12.13;5.90;;;;;;;-0.93;77.90;147443.47;1749562;80;21091;-62
2021/12/27 03:48:23;;;;;;;11.22;5.90;;;;;;;-0.93;78.14;147443.47;1762961;80;22136;-62
2021/12/27 03:50:50;;;;;;;14.83;6.87;;;;;;;-0.91;77.98;147448.59;1760926;80;21449;-62
2021/12/27 03:53:17;;;;;;;15.68;6.35;;;;;;;-0.90;78.00;147451.17;1758547;80;21044;-61
2021/12/27 03:55:44;;;;;;;10.82;6.00;;;;;;;-0.89;77.16;147453.75;1763153;80;21081;-62
2021/12/27 03:58:23;;;;;;;11.08;5.30;;;;;;;-0.88;77.31;147455.06;1765390;80;21077;-62
2021/12/27 04:00:47;;;;;;;10.05;5.37;;;;;;;-0.88;77.85;147456.31;1763164;80;21945;-61
2021/12/27 04:03:12;;;;;;;10.32;4.95;;;;;;;-0.88;77.18;147456.31;1754519;80;20946;-62
2021/12/27 04:05:39;;;;;;;10.30;4.53;;;;;;;-0.88;78.18;147456.31;1766111;80;21036;-62
2021/12/27 04:08:09;;;;;;;15.15;5.58;;;;;;;-0.85;77.91;147461.45;1756464;80;21029;-61
2021/12/27 04:10:40;;;;;;;12.00;5.35;;;;;;;-0.87;77.68;147458.88;1753055;80;21018;-62
2021/12/27 04:13:08;;;;;;;8.90;4.60;;;;;;;-0.87;77.05;147457.63;1752764;81;22358;-62
2021/12/27 04:15:36;;;;;;;11.50;4.53;;;;;;;-0.87;77.13;147458.88;1750521;80;21000;-62
2021/12/27 04:18:03;;;;;;;10.30;4.87;;;;;;;-0.89;76.83;147453.75;1760622;81;20977;-62
2021/12/27 04:20:32;;;;;;;12.28;4.78;;;;;;;-0.88;76.57;147455.06;1760829;80;21474;-62
2021/12/27 04:22:58;;;;;;;13.35;5.20;;;;;;;-0.87;77.86;147458.88;1747354;80;21087;-62
2021/12/27 04:25:25;;;;;;;12.53;5.20;;;;;;;-0.84;78.04;147465.34;1739132;80;21547;-62
2021/12/27 04:27:54;;;;;;;9.93;4.62;;;;;;;-0.80;77.54;147474.31;1754540;80;21044;-62
2021/12/27 04:30:20;;;;;;;8.18;4.62;;;;;;;-0.81;76.49;147471.73;1749984;80;21088;-61
2021/12/27 04:32:49;;;;;;;12.20;5.08;;;;;;;-0.80;76.56;147474.31;1756034;80;21261;-62
2021/12/27 04:35:17;;;;;;;10.80;4.22;;;;;;;-0.79;75.81;147476.88;1721889;82;21099;-62
2021/12/27 04:37:44;;;;;;;7.60;3.65;;;;;;;-0.78;75.81;147479.44;1762457;80;21911;-61
2021/12/27 04:40:13;;;;;;;8.13;3.47;;;;;;;-0.76;75.77;147484.63;1723392;81;21360;-62
2021/12/27 04:42:44;;;;;;;7.67;3.47;;;;;;;-0.75;75.39;147487.20;1728233;81;21107;-61
2021/12/27 04:45:14;;;;;;;7.72;3.25;;;;;;;-0.72;74.85;147494.91;1723629;81;20997;-62
2021/12/27 04:47:42;;;;;;;10.63;3.85;;;;;;;-0.72;74.60;147494.91;1724044;81;21220;-61
2021/12/27 04:50:10;;;;;;;7.62;3.60;;;;;;;-0.72;74.04;147494.91;1721508;82;21116;-61
2021/12/27 04:52:37;;;;;;;9.88;3.50;;;;;;;-0.71;73.85;147497.48;1750174;80;21049;-61
2021/12/27 04:55:04;;;;;;;7.80;3.15;;;;;;;-0.69;74.46;147502.63;1737220;81;20973;-61
2021/12/27 04:57:31;;;;;;;7.97;3.37;;;;;;;-0.66;74.25;147509.08;1718917;82;21029;-61
2021/12/27 04:59:58;;;;;;;8.45;3.42;;;;;;;-0.65;73.99;147511.64;1738966;80;21035;-60
2021/12/27 05:02:25;;;;;;;6.40;2.85;;;;;;;-0.64;73.60;147515.47;1730693;81;21139;-62
2021/12/27 05:04:52;;;;;;;8.13;3.27;;;;;;;-0.63;74.30;147518.05;1748513;80;21048;-61
2021/12/27 05:07:19;;;;;;;7.90;3.87;;;;;;;-0.61;74.99;147523.19;1754444;80;21099;-61
2021/12/27 05:09:45;;;;;;;6.95;3.15;;;;;;;-0.61;75.01;147523.19;1722908;81;21053;-62
2021/12/27 05:12:12;;;;;;;8.30;3.10;;;;;;;-0.62;74.60;147519.34;1757127;81;20905;-62
2021/12/27 05:14:38;;;;;;;11.00;3.40;;;;;;;-0.64;73.90;147515.47;1706774;82;21502;-62
2021/12/27 05:17:05;;;;;;;8.85;3.37;;;;;;;-0.63;74.39;147518.05;1739163;80;20990;-62
2021/12/27 05:19:32;;;;;;;7.87;3.22;;;;;;;-0.62;74.87;147519.34;1749102;80;22279;-64
2021/12/27 05:21:58;;;;;;;5.97;2.85;;;;;;;-0.61;75.47;147523.19;1751016;80;21009;-65
2021/12/27 05:24:28;;;;;;;7.58;3.08;;;;;;;-0.60;75.96;147524.50;1754795;80;21502;-61
2021/12/27 05:26:55;;;;;;;7.40;3.10;;;;;;;-0.59;76.14;147528.33;1751018;80;21182;-61
2021/12/27 05:29:22;;;;;;;6.40;2.92;;;;;;;-0.59;76.00;147528.33;1762800;80;21096;-61
2021/12/27 05:31:49;;;;;;;15.15;2.98;;;;;;;-0.60;75.93;147524.50;1756710;80;21060;-64
2021/12/27 05:34:16;;;;;;;8.58;3.42;;;;;;;-0.63;76.65;147518.05;1720323;81;21108;-61
2021/12/27 05:36:44;;;;;;;7.05;3.17;;;;;;;-0.65;77.80;147512.91;1731830;81;21106;-62
2021/12/27 05:39:11;;;;;;;10.15;3.17;;;;;;;-0.70;78.43;147500.06;1727500;81;21563;-63
2021/12/27 05:41:38;;;;;;;9.40;3.90;;;;;;;-0.75;78.82;147487.20;1731724;81;21273;-61
2021/12/27 05:44:06;;;;;;;12.68;3.92;;;;;;;-0.79;79.83;147476.88;1763246;80;21013;-61
2021/12/27 05:46:34;;;;;;;7.97;3.27;;;;;;;-0.82;80.34;147470.47;1754381;80;21092;-64
2021/12/27 05:49:00;;;;;;;10.10;3.98;;;;;;;-0.86;80.95;147460.19;1751449;80;21135;-61
2021/12/27 05:51:27;;;;;;;10.98;3.67;;;;;;;-0.90;81.81;147451.17;1768452;80;23270;-61
2021/12/27 05:53:54;;;;;;;7.20;3.60;;;;;;;-0.93;82.69;147443.47;1760016;80;21469;-62
2021/12/27 05:56:20;;;;;;;6.80;3.60;;;;;;;-0.97;83.78;147433.19;1759096;80;20945;-61
2021/12/27 05:58:47;;;;;;;11.28;3.77;;;;;;;-0.98;85.09;147429.31;1753273;81;21088;-62
2021/12/27 06:01:14;;;;;;;7.05;3.37;;;;;;;-0.97;85.75;147431.87;1761095;80;21413;-62
2021/12/27 06:03:41;;;;;;;8.35;2.92;;;;;;;-0.99;86.40;147428.05;1746863;81;21145;-62
2021/12/27 06:06:08;;;;;;;12.05;3.17;;;;;;;-1.02;86.84;147420.28;1750056;80;21081;-62
2021/12/27 06:08:35;;;;;;;8.23;3.58;;;;;;;-1.03;87.00;147417.72;1756257;80;21059;-62
2021/12/27 06:11:02;;;;;;;7.90;3.30;;;;;;;-1.02;87.37;147420.28;1755810;80;21119;-61
2021/12/27 06:13:29;;;;;;;6.67;3.20;;;;;;;-1.02;87.99;147421.59;1741521;80;21494;-61
2021/12/27 06:15:56;;;;;;;6.55;3.15;;;;;;;-1.03;88.24;147417.72;1748079;81;22839;-61
2021/12/27 06:18:24;;;;;;;8.68;2.70;;;;;;;-1.04;88.66;147416.47;1749539;80;21460;-60
2021/12/27 06:20:51;;;;;;;7.00;2.98;;;;;;;-1.04;89.93;147415.16;1712158;82;21060;-61
2021/12/27 06:23:18;;;;;;;10.93;2.67;;;;;;;-1.08;90.28;147404.88;1710920;82;21480;-61
2021/12/27 06:25:45;;;;;;;11.20;3.22;;;;;;;-1.10;90.40;147399.73;1741654;80;21041;-62
2021/12/27 06:28:12;;;;;;;10.40;3.08;;;;;;;-1.11;90.73;147397.17;1752730;80;21191;-61
2021/12/27 06:30:42;;;;;;;9.65;3.17;;;;;;;-1.15;90.79;147388.16;1755203;80;21028;-60
2021/12/27 06:33:10;;;;;;;8.08;3.75;;;;;;;-1.17;91.08;147384.31;1753309;80;21009;-60
2021/12/27 06:35:37;;;;;;;7.58;3.12;;;;;;;-1.18;91.88;147380.44;1746756;80;21155;-62
2021/12/27 06:38:05;;;;;;;9.10;3.50;;;;;;;-1.24;92.13;147366.28;1759693;80;20954;-62
2021/12/27 06:40:33;;;;;;;5.30;2.72;;;;;;;-1.28;92.25;147356.02;1756136;80;21124;-61
2021/12/27 06:42:59;;;;;;;6.85;3.30;;;;;;;-1.30;93.31;147352.19;1759313;81;20982;-63
2021/12/27 06:45:27;;;;;;;8.40;2.60;;;;;;;-1.33;93.57;147343.17;1761256;81;21080;-62
2021/12/27 06:47:53;;;;;;;8.05;2.83;;;;;;;-1.36;93.59;147336.72;1750685;80;21557;-61
2021/12/27 06:50:21;;;;;;;8.55;2.55;;;;;;;-1.36;93.49;147335.47;1747692;80;21140;-62
2021/12/27 06:52:48;;;;;;;5.47;2.25;;;;;;;-1.36;94.19;147335.47;1720444;81;21904;-61
2021/12/27 06:55:14;;;;;;;5.20;2.52;;;;;;;-1.36;94.39;147335.47;1717119;82;21049;-61
2021/12/27 06:57:41;;;;;;;6.17;2.42;;;;;;;-1.37;94.67;147334.16;1749424;80;21692;-60
2021/12/27 07:00:12;;;;;;;8.20;2.55;;;;;;;-1.36;94.82;147335.47;1752339;80;21415;-61
2021/12/27 07:02:39;;;;;;;5.92;2.40;;;;;;;-1.36;95.34;147336.72;1712722;82;21076;-66
2021/12/27 07:05:06;;;;;;;6.05;2.40;;;;;;;-1.34;95.63;147340.59;1751856;80;21039;-66
2021/12/27 07:07:34;;;;;;;8.33;2.72;;;;;;;-1.35;95.82;147338.03;1719203;82;21083;-64
2021/12/27 07:10:01;;;;;;;5.87;2.50;;;;;;;-1.36;95.96;147335.47;1713290;82;20979;-65
2021/12/27 07:12:28;;;;;;;8.63;1.90;;;;;;;-1.38;96.45;147330.31;1729361;81;20987;-61
2021/12/27 07:14:55;;;;;;;3.60;1.77;;;;;;;-1.38;96.45;147330.31;1702826;83;21095;-61
2021/12/27 07:17:21;;;;;;;5.72;1.85;;;;;;;-1.39;96.35;147329.02;1723956;81;21793;-61
2021/12/27 07:19:49;;;;;;;3.80;1.57;;;;;;;-1.41;96.11;147322.63;1735732;81;21087;-62
2021/12/27 07:22:16;;;;;;;3.90;1.10;;;;;;;-1.43;96.47;147317.48;1743772;81;21045;-62
2021/12/27 07:24:42;;;;;;;8.15;1.72;;;;;;;-1.45;96.43;147313.59;1742144;81;21095;-61
2021/12/27 07:27:09;;;;;;;4.12;1.45;;;;;;;-1.47;96.83;147308.47;1739874;81;21087;-62
2021/12/27 07:29:36;;;;;;;3.50;1.12;;;;;;;-1.48;96.99;147307.16;1740741;81;21504;-61
2021/12/27 07:32:05;;;;;;;7.08;1.20;;;;;;;-1.48;97.07;147307.16;1742555;81;21374;-61
2021/12/27 07:34:32;;;;;;;2.75;1.40;;;;;;;-1.45;97.23;147314.86;1740760;81;20979;-66
2021/12/27 07:37:00;;;;;;;8.63;1.45;;;;;;;-1.42;97.48;147320.05;1707183;82;21011;-66
2021/12/27 07:39:29;;;;;;;4.30;1.67;;;;;;;-1.41;97.72;147322.63;1731437;81;21724;-65
2021/12/27 07:41:55;;;;;;;4.67;1.72;;;;;;;-1.40;97.81;147326.44;1742883;81;21112;-66
2021/12/27 07:44:22;;;;;;;4.80;1.42;;;;;;;-1.39;98.05;147327.75;1724089;82;21125;-65
2021/12/27 07:46:49;;;;;;;5.67;1.60;;;;;;;-1.42;98.37;147320.05;1710850;82;21052;-66
2021/12/27 07:49:17;;;;;;;7.10;1.52;;;;;;;-1.40;98.57;147325.19;1742578;81;21001;-66
2021/12/27 07:51:44;;;;;;;3.35;1.80;;;;;;;-1.40;98.63;147325.19;1738527;81;21000;-66
2021/12/27 07:54:11;;;;;;;6.75;2.02;;;;;;;-1.40;98.92;147325.19;1741483;81;21140;-66
2021/12/27 07:56:38;;;;;;;6.92;2.10;;;;;;;-1.38;99.55;147330.31;1720469;82;21075;-66
2021/12/27 07:59:05;;;;;;;5.37;2.05;;;;;;;-1.35;99.78;147338.03;1739165;81;21444;-66
2021/12/27 08:01:35;;;;;;;7.30;2.30;;;;;;;-1.34;99.78;147340.59;1741237;81;21104;-66
2021/12/27 08:04:03;;;;;;;8.60;2.30;;;;;;;-1.36;99.83;147335.47;1729362;81;21001;-66
2021/12/27 08:06:31;;;;;;;11.97;2.52;;;;;;;-1.36;100.00;147335.47;1686132;83;21513;-66
2021/12/27 08:08:58;;;;;;;7.03;2.10;;;;;;;-1.35;100.00;147338.03;1738870;81;21053;-66
2021/12/27 08:11:26;;;;;;;6.30;1.87;;;;;;;-1.35;100.00;147338.03;1730807;82;21091;-66
2021/12/27 08:13:53;;;;;;;7.83;2.40;;;;;;;-1.37;100.00;147332.89;1736663;82;21552;-65
2021/12/27 08:16:24;;;;;;;9.10;2.27;;;;;;;-1.40;100.00;147326.44;1736054;82;20997;-65
2021/12/27 08:18:49;;;;;;;7.60;2.37;;;;;;;-1.38;100.00;147330.31;1737346;81;21891;-66
2021/12/27 08:21:16;;;;;;;5.90;2.47;;;;;;;-1.36;100.00;147335.47;1750768;80;21029;-65
2021/12/27 08:23:43;;;;;;;8.23;2.62;;;;;;;-1.34;100.00;147341.86;1760246;80;21554;-65
2021/12/27 08:26:11;;;;;;;9.08;2.40;;;;;;;-1.32;100.00;147345.73;1761411;80;21067;-65
2021/12/27 08:28:38;;;;;;;12.30;2.90;;;;;;;-1.30;100.00;147352.19;1774606;80;21501;-64
2021/12/27 08:31:05;;;;;;;9.73;3.10;;;;;;;-1.28;100.00;147356.02;1777945;80;22030;-64
2021/12/27 08:33:32;;;;;;;6.17;2.27;;;;;;;-1.22;100.00;147371.42;1752632;80;21034;-65
2021/12/27 08:35:58;;;;;;;6.40;2.75;;;;;;;-1.20;100.00;147376.61;1753343;80;21107;-65
2021/12/27 08:38:25;;;;;;;8.25;2.33;;;;;;;-1.20;100.00;147375.30;1719967;82;21100;-65
2021/12/27 08:40:52;;;;;;;7.33;2.80;;;;;;;-1.18;100.00;147381.75;1761133;80;21035;-65
2021/12/27 08:43:19;;;;;;;7.50;2.40;;;;;;;-1.20;100.00;147376.61;1760026;80;21557;-65
2021/12/27 08:45:45;;;;;;;6.40;2.40;;;;;;;-1.18;100.00;147381.75;1749465;81;21024;-64
2021/12/27 08:48:17;;;;;;;7.17;2.47;;;;;;;-1.17;100.00;147383.02;1759854;80;21423;-65
2021/12/27 08:50:45;;;;;;;7.00;2.37;;;;;;;-1.19;100.00;147379.19;1759256;80;20976;-65
2021/12/27 08:53:12;;;;;;;6.45;2.55;;;;;;;-1.21;100.00;147374.05;1756049;80;21074;-65
2021/12/27 08:55:39;;;;;;;5.85;2.58;;;;;;;-1.21;100.00;147372.73;1761080;81;21597;-65
2021/12/27 08:58:06;;;;;;;4.80;2.62;;;;;;;-1.21;100.00;147374.05;1745446;80;21071;-65
2021/12/27 09:00:33;;;;;;;8.93;2.95;;;;;;;-1.17;100.00;147384.31;1751643;80;21104;-65
2021/12/27 09:03:00;;;;;;;6.08;2.77;;;;;;;-1.14;100.00;147390.72;1745087;80;21505;-65
2021/12/27 09:05:31;;;;;;;9.90;2.83;;;;;;;-1.13;100.00;147392.03;1753147;80;21465;-65
2021/12/27 09:07:57;;;;;;;9.68;3.00;;;;;;;-1.10;100.00;147399.73;1734360;80;21058;-66
2021/12/27 09:10:24;;;;;;;6.08;3.15;;;;;;;-1.02;100.00;147420.28;1748423;81;21021;-66
2021/12/27 09:12:52;;;;;;;10.65;3.12;;;;;;;-0.98;100.00;147430.63;1763957;81;21087;-66
2021/12/27 09:15:20;;;;;;;6.55;2.67;;;;;;;-0.95;100.00;147437.02;1758087;81;20974;-66
2021/12/27 09:17:46;;;;;;;6.47;2.47;;;;;;;-0.94;100.00;147440.91;1751605;80;21040;-66
2021/12/27 09:20:15;;;;;;;6.78;2.50;;;;;;;-0.95;100.00;147438.33;1751525;80;21134;-66
2021/12/27 09:22:42;;;;;;;5.90;2.22;;;;;;;-0.92;100.00;147446.03;1752329;80;21115;-65
2021/12/27 09:25:09;;;;;;;5.78;2.60;;;;;;;-0.90;100.00;147451.17;1749998;80;20862;-66
2021/12/27 09:27:36;;;;;;;13.45;2.45;;;;;;;-0.87;100.00;147458.88;1758956;81;21104;-66
2021/12/27 09:30:05;;;;;;;8.88;2.72;;;;;;;-0.84;100.00;147465.34;1757465;80;21008;-66
2021/12/27 09:32:33;;;;;;;7.60;2.70;;;;;;;-0.84;100.00;147464.03;1751988;81;21110;-65
2021/12/27 09:35:00;;;;;;;10.90;2.27;;;;;;;-0.85;100.00;147461.45;1752333;80;20997;-65
2021/12/27 09:37:28;;;;;;;5.47;2.27;;;;;;;-0.80;100.00;147474.31;1759024;80;21052;-65
2021/12/27 09:39:54;;;;;;;7.70;2.22;;;;;;;-0.80;100.00;147474.31;1755949;81;21043;-66
2021/12/27 09:42:24;;;;;;;7.40;2.35;;;;;;;-0.81;100.00;147473.05;1760314;81;21445;-65
2021/12/27 09:44:51;;;;;;;7.40;2.30;;;;;;;-0.78;100.00;147479.44;1764602;80;21203;-65
2021/12/27 09:47:18;;;;;;;6.83;2.35;;;;;;;-0.77;100.00;147482.06;1702229;82;21032;-65
2021/12/27 09:49:45;;;;;;;4.42;2.35;;;;;;;-0.75;100.00;147488.47;1696416;82;21751;-66
2021/12/27 09:52:12;;;;;;;5.17;2.50;;;;;;;-0.74;100.00;147491.03;1718150;81;21115;-66
2021/12/27 09:54:39;;;;;;;6.35;2.50;;;;;;;-0.76;100.00;147484.63;1725146;81;21477;-66
2021/12/27 09:57:07;;;;;;;6.95;2.45;;;;;;;-0.78;100.00;147479.44;1748879;80;21836;-66
2021/12/27 09:59:33;;;;;;;5.62;2.50;;;;;;;-0.78;100.00;147479.44;1744820;80;21099;-61
2021/12/27 10:02:00;;;;;;;8.18;2.60;;;;;;;-0.75;100.00;147488.47;1745744;80;21020;-62
2021/12/27 10:04:27;;;;;;;4.00;2.27;;;;;;;-0.73;100.00;147492.34;1744919;80;21676;-62
2021/12/27 10:06:53;;;;;;;6.30;2.92;;;;;;;-0.69;100.00;147502.63;1749818;80;21044;-64
2021/12/27 10:09:21;;;;;;;9.15;2.90;;;;;;;-0.68;100.00;147505.19;1663138;84;21820;-66
2021/12/27 10:11:47;;;;;;;5.97;2.50;;;;;;;-0.65;100.00;147512.91;1732896;82;21534;-63
2021/12/27 10:14:19;;;;;;;6.30;2.75;;;;;;;-0.61;100.00;147521.92;1707861;82;21046;-62
2021/12/27 10:17:06;;;;;;;6.15;2.92;;;;;;;-0.58;100.00;147530.91;1706790;83;21544;-62
2021/12/27 10:19:34;;;;;;;11.00;2.70;;;;;;;-0.55;100.00;147537.34;1704442;82;20968;-62
2021/12/27 10:22:01;;;;;;;8.78;2.75;;;;;;;-0.55;100.00;147537.34;1729366;82;21128;-61
2021/12/27 10:24:28;;;;;;;3.72;2.45;;;;;;;-0.55;100.00;147536.03;1723075;81;21097;-61
2021/12/27 10:26:57;;;;;;;6.60;2.72;;;;;;;-0.58;100.00;147530.91;1720189;81;21063;-62
2021/12/27 10:29:27;;;;;;;6.83;2.83;;;;;;;-0.59;100.00;147528.33;1704369;82;21051;-63
2021/12/27 10:32:04;;;;;;;7.47;2.87;;;;;;;-0.61;100.00;147523.19;1727625;82;21007;-66
2021/12/27 10:34:47;;;;;;;10.75;3.42;;;;;;;-0.59;100.00;147528.33;1729159;81;21794;-65
2021/12/27 10:37:29;;;;;;;7.95;2.98;;;;;;;-0.55;100.00;147536.03;1729614;81;20988;-61
2021/12/27 10:40:04;;;;;;;7.55;2.67;;;;;;;-0.50;100.00;147548.94;1724142;81;21709;-61
2021/12/27 10:42:43;;;;;;;6.05;3.00;;;;;;;-0.51;100.00;147547.62;1726845;82;21596;-61
2021/12/27 10:45:18;;;;;;;9.30;3.60;;;;;;;-0.53;100.00;147541.22;1733535;81;21130;-62
2021/12/27 10:47:52;;;;;;;17.05;3.70;;;;;;;-0.52;100.00;147545.06;1729857;82;22204;-61
2021/12/27 10:50:33;;;;;;;11.60;4.10;;;;;;;-0.46;100.00;147559.22;1720908;81;21551;-65
2021/12/27 10:53:08;;;;;;;14.80;3.92;;;;;;;-0.44;100.00;147564.36;1724822;81;21051;-66
2021/12/27 10:55:43;;;;;;;11.08;3.58;;;;;;;-0.46;100.00;147559.22;1719681;81;21095;-65
2021/12/27 10:58:20;;;;;;;17.05;4.17;;;;;;;-0.47;100.00;147556.66;1725012;81;21034;-65
2021/12/27 11:00:53;;;;;;;10.93;3.90;;;;;;;-0.48;100.00;147554.08;1725114;81;22443;-66
2021/12/27 11:03:33;;;;;;;15.18;5.03;;;;;;;-0.50;100.00;147550.20;1716174;82;20921;-66
2021/12/27 11:06:03;;;;;;;15.80;4.60;;;;;;;-0.47;100.00;147556.66;1723908;82;21169;-65
2021/12/27 11:08:32;;;;;;;13.50;4.47;;;;;;;-0.42;100.00;147568.25;1713822;81;21205;-64
2021/12/27 11:10:59;;;;;;;18.37;5.20;;;;;;;-0.39;100.00;147577.22;1755741;80;21735;-65
2021/12/27 11:13:27;;;;;;;11.08;4.35;;;;;;;-0.37;100.00;147582.36;1740442;80;21161;-65
2021/12/27 11:15:55;;;;;;;12.28;4.42;;;;;;;-0.36;100.00;147584.94;1755738;81;21032;-65
2021/12/27 11:18:21;;;;;;;12.05;4.90;;;;;;;-0.37;100.00;147582.36;1745948;80;20985;-65
2021/12/27 11:21:14;;;;;;;14.68;5.08;;;;;;;-0.36;100.00;147583.67;1752462;80;21080;-64
2021/12/27 11:23:41;;;;;;;12.90;5.15;;;;;;;-0.38;100.00;147579.78;1689564;83;21112;-64
2021/12/27 11:26:13;;;;;;;13.25;5.00;;;;;;;-0.38;100.00;147579.78;1731833;80;21005;-63